Archival Weather

South Haven Area Rgnl

South Haven, Michigan (KLWA)

Report from: Thursday, September 21, 2023 2:35 PM EDT
Current time: Saturday, February 24, 2024 10:13 AM EST

Current weather – Weather history – Daily summaries
Weather forecast

Temperature25.2°C (77.4°F)
Dew point16.7°C (62.1°F)
Winds 3 kts (1.5 m/s, 3.5 mph) Southeast (130°)
Visibility10 mi. (16.1 km)
Clouds Sky clear
Altimeter30.22 in.Hg (1023 mB)
Relative humidity59 %
Density altitude1,103 ft. (336 m)
Remarks Fully automated report
Automated weather observing station with precipitation discriminator
Flight conditions Visual Meteorological Conditions
Raw dataKLWA 211835Z AUTO 13003KT 10SM CLR 25/17 A3022 RMK AO2 T02520167
An error has occurred. This application may no longer respond until reloaded. Reload 🗙